Exeter, Pennsylvania
Current Conditions -  °F | °C
As of 11:24 AM on Monday 26 Jan 2015 (Local Time) from KAVP Reporting Station
Overcast Overcast  
Wind Chill: 10°   Ceiling: 2800
Heat Index: 22°   Visibility: 10mi
Dew Point: 11°   Wind: 13mph
Humidity: 63%   Direction: 60°ENE
Pressure: 29.87"   Gusts: 18mph
Location:  41.3688°N, 75.837°W
Report Text: KAVP 261624Z AUTO 06011G16KT 10SM BKN028 OVC035 M06/M12 A2987 RMK AO2 UPB12E14SNE12 P0000 T10561117
Loading
Personal Weather Stations






























Interactive Weather Map New forecast layout! Learn more

10-Day Weather Forecast

Advertisements
Track Severe Weather on mobile